LSZALSME

Guest
Details From LSZA - Lugano
To LSME - Emmen
Flight Number -
Tags generated
Created
Modified
Stats Distance 70 nm / 130 km
Max Altitude 6,700 ft / 2,042 m
Waypoints 3
Social Downloads 0
Likes 0
Share VATSIM

Download

Looking for another format? Having issues loading an existing format? Contact us
Advertisement - Login to hide

Notes

Basic altitude profile: - Ascent Rate: 700ft/min - Ascent Speed: 90kts - Cruise Altitude: 9200ft - Cruise Speed: 120kts - Descent Rate: 700ft/min - Descent Speed: 85kts Options: - Use NATs: yes - Use PACOTS: yes - Use low airways: yes - Use high airways: yes

Route

LSZA SOSON LSME

ID Type Via Altitude Latitude Longitude Leg Dist Tot Dist Heading (true) Name
O LSZA APT - 0 ft / 0 m 46.00428˚ 8.91058˚ - 0 nm - Lugano
SOSON FIX - 6,700 ft / 2,042 m 46.60667˚ 8.59417˚ 38 nm 38 nm 340° / 340° -
O LSME APT - 0 ft / 0 m 47.09237˚ 8.30512˚ 31 nm 69 nm 338° / 338° Emmen

Altitude Profile

Advertisement - Login to hide

LSZA

Details ICAO LSZA (LUG)
Name Lugano
Region Switzerland
Timezone Europe/Zurich (UTC+2.0)
Stats Elevation 915 ft / 279 m (AMSL)
Location 46.004275° 8.910579°
Runways 1
Magnetic Variation 2.474° E

METAR

LSZA 211320Z VRB05KT 9999 FEW060TCU SCT090 21/13 Q1015 NOSIG

Decode

TAF

Not found

Departure Runways

ID Width Length Bearing (true) Bearing (mag) Surface Threshold Offset Overrun Length
01 98 ft / 30 m 4,430 ft / 1,350 m 18.79° 16.32° Asphalt 361 ft / 110 m 0 ft / 0 m
19 98 ft / 30 m 4,430 ft / 1,350 m 198.79° 196.32° Asphalt 673 ft / 205 m 0 ft / 0 m

LSME

Details ICAO LSME
Name Emmen
Region Switzerland
Timezone Europe/Zurich (UTC+2.0)
Stats Elevation 1,400 ft / 427 m (AMSL)
Location 47.092369° 8.305118°
Runways 1
Magnetic Variation 2.336° E

METAR

LSME 211250Z AUTO VRB03KT 9999NDV NCD 22/12 Q1013 RMK

Decode

TAF

TAF LSME 210925Z 2110/2216 VRB03KT 9999 FEW030 PROB40 TEMPO 2113/2121 SHRA SCT040TCU PROB30 TEMPO 2113/2119 27012KT TSRA SCT040CB BECMG 2120/2123 CAVOK PROB30 2203/2207 1400 BCFG BKN009 BECMG 2210/2213 FEW030 PROB40 TEMPO 2212/2216 SHRA SCT040TCU PROB30 TEMPO 2213/2216 27012KT 4000 TSRA SCT040CB

Decode

Destination Runways

ID Width Length Bearing (true) Bearing (mag) Surface Threshold Offset Overrun Length
04 130 ft / 40 m 8,202 ft / 2,500 m 37.49° 35.15° Asphalt 363 ft / 111 m 810 ft / 247 m
22 130 ft / 40 m 8,202 ft / 2,500 m 217.51° 215.17° Asphalt 596 ft / 182 m 747 ft / 228 m

Approach Navaids

Runway Type Ident Frequency Range Bearing (true) Bearing (mag) Slope Elevation
22 Localiser IEM 110.35 MHz 18 nm / 33 km 217.57° 215.23° - 1,400 ft / 427 m (AMSL)
22 Glidescope IEM 110.35 MHz 10 nm / 19 km 217.50° 215.16° 4.00° 1,406 ft / 429 m (AMSL)
22 DME IEM 110.35 MHz 18 nm / 33 km - - - 1,406 ft / 429 m (AMSL)

Popular Alternatives